sensor_id;sensor_type;location;lat;lon;timestamp;pressure;altitude;pressure_sealevel;temperature;humidity
56831;BME280;42713;42.676;23.352;2023-08-06T00:02:04;93695.34;;;20.66;78.99
56831;BME280;42713;42.676;23.352;2023-08-06T00:04:29;93689.66;;;20.67;78.70
56831;BME280;42713;42.676;23.352;2023-08-06T00:06:55;93705.56;;;20.76;81.43
56831;BME280;42713;42.676;23.352;2023-08-06T00:09:20;93704.13;;;20.91;80.78
56831;BME280;42713;42.676;23.352;2023-08-06T00:11:46;93711.22;;;20.99;80.16
56831;BME280;42713;42.676;23.352;2023-08-06T00:14:12;93725.88;;;21.06;76.98
56831;BME280;42713;42.676;23.352;2023-08-06T00:16:42;93724.34;;;21.05;77.83
56831;BME280;42713;42.676;23.352;2023-08-06T00:19:08;93700.28;;;21.01;77.56
56831;BME280;42713;42.676;23.352;2023-08-06T00:21:33;93674.06;;;21.03;80.02
56831;BME280;42713;42.676;23.352;2023-08-06T00:23:58;93687.16;;;21.08;81.12
56831;BME280;42713;42.676;23.352;2023-08-06T00:26:24;93692.25;;;21.13;81.72
56831;BME280;42713;42.676;23.352;2023-08-06T00:28:49;93701.25;;;21.21;81.43
56831;BME280;42713;42.676;23.352;2023-08-06T00:31:15;93695.34;;;21.28;79.96
56831;BME280;42713;42.676;23.352;2023-08-06T00:33:40;93687.47;;;21.32;81.21
56831;BME280;42713;42.676;23.352;2023-08-06T00:36:06;93681.78;;;21.33;80.16
56831;BME280;42713;42.676;23.352;2023-08-06T00:38:31;93682.03;;;21.28;79.78
56831;BME280;42713;42.676;23.352;2023-08-06T00:40:57;93666.81;;;21.28;79.73
56831;BME280;42713;42.676;23.352;2023-08-06T00:43:22;93669.84;;;21.27;77.74
56831;BME280;42713;42.676;23.352;2023-08-06T00:45:47;93673.16;;;21.24;79.08
56831;BME280;42713;42.676;23.352;2023-08-06T00:48:13;93662.75;;;21.19;78.78
56831;BME280;42713;42.676;23.352;2023-08-06T00:50:39;93664.41;;;21.23;80.57
56831;BME280;42713;42.676;23.352;2023-08-06T00:53:05;93659.94;;;21.27;79.96
56831;BME280;42713;42.676;23.352;2023-08-06T00:55:30;93666.38;;;21.26;79.54
56831;BME280;42713;42.676;23.352;2023-08-06T00:57:56;93673.25;;;21.27;79.00
56831;BME280;42713;42.676;23.352;2023-08-06T01:00:22;93654.19;;;21.25;77.55
56831;BME280;42713;42.676;23.352;2023-08-06T01:02:48;93657.53;;;21.22;77.95
56831;BME280;42713;42.676;23.352;2023-08-06T01:05:14;93643.56;;;21.25;79.05
56831;BME280;42713;42.676;23.352;2023-08-06T01:10:24;93623.56;;;21.19;79.05
56831;BME280;42713;42.676;23.352;2023-08-06T01:13:08;93630.00;;;21.18;79.47
56831;BME280;42713;42.676;23.352;2023-08-06T01:15:41;93634.91;;;21.16;80.41
56831;BME280;42713;42.676;23.352;2023-08-06T01:18:09;93625.25;;;21.11;77.44
56831;BME280;42713;42.676;23.352;2023-08-06T01:20:35;93642.00;;;21.12;77.01
56831;BME280;42713;42.676;23.352;2023-08-06T01:23:01;93626.81;;;21.12;77.19
56831;BME280;42713;42.676;23.352;2023-08-06T01:28:24;93610.81;;;21.12;76.00
56831;BME280;42713;42.676;23.352;2023-08-06T01:30:55;93612.94;;;21.07;77.13
56831;BME280;42713;42.676;23.352;2023-08-06T01:33:22;93608.63;;;21.02;77.73
56831;BME280;42713;42.676;23.352;2023-08-06T01:35:49;93606.56;;;20.95;78.15
56831;BME280;42713;42.676;23.352;2023-08-06T01:38:15;93612.97;;;20.94;78.45
56831;BME280;42713;42.676;23.352;2023-08-06T01:40:41;93609.53;;;20.94;77.88
56831;BME280;42713;42.676;23.352;2023-08-06T01:43:06;93605.31;;;20.93;78.15
56831;BME280;42713;42.676;23.352;2023-08-06T01:45:32;93605.00;;;20.82;78.58
56831;BME280;42713;42.676;23.352;2023-08-06T01:47:57;93602.00;;;20.71;78.87
56831;BME280;42713;42.676;23.352;2023-08-06T01:50:23;93601.09;;;20.55;78.73
56831;BME280;42713;42.676;23.352;2023-08-06T01:52:48;93600.22;;;20.50;79.36
56831;BME280;42713;42.676;23.352;2023-08-06T01:55:14;93608.19;;;20.38;79.63
56831;BME280;42713;42.676;23.352;2023-08-06T01:57:39;93604.63;;;20.34;80.41
56831;BME280;42713;42.676;23.352;2023-08-06T02:00:05;93609.09;;;20.30;80.52
56831;BME280;42713;42.676;23.352;2023-08-06T02:02:32;93602.66;;;20.31;80.65
56831;BME280;42713;42.676;23.352;2023-08-06T02:04:59;93589.78;;;20.33;80.33
56831;BME280;42713;42.676;23.352;2023-08-06T02:07:24;93596.66;;;20.34;80.10
56831;BME280;42713;42.676;23.352;2023-08-06T02:09:49;93594.44;;;20.36;80.86
56831;BME280;42713;42.676;23.352;2023-08-06T02:12:15;93585.16;;;20.42;81.02
56831;BME280;42713;42.676;23.352;2023-08-06T02:14:40;93582.16;;;20.44;81.74
56831;BME280;42713;42.676;23.352;2023-08-06T02:17:06;93590.34;;;20.38;79.78
56831;BME280;42713;42.676;23.352;2023-08-06T02:19:31;93600.22;;;20.38;81.72
56831;BME280;42713;42.676;23.352;2023-08-06T02:21:57;93604.53;;;20.30;83.18
56831;BME280;42713;42.676;23.352;2023-08-06T02:24:22;93617.59;;;20.23;83.75
56831;BME280;42713;42.676;23.352;2023-08-06T02:26:48;93627.22;;;20.15;83.01
56831;BME280;42713;42.676;23.352;2023-08-06T02:29:16;93636.41;;;20.05;82.67
56831;BME280;42713;42.676;23.352;2023-08-06T02:31:41;93617.13;;;19.96;82.77
56831;BME280;42713;42.676;23.352;2023-08-06T02:34:07;93595.41;;;19.94;84.14
56831;BME280;42713;42.676;23.352;2023-08-06T02:36:32;93605.59;;;20.04;85.96
56831;BME280;42713;42.676;23.352;2023-08-06T02:38:58;93614.22;;;20.01;85.97
56831;BME280;42713;42.676;23.352;2023-08-06T02:41:23;93623.22;;;19.75;86.44
56831;BME280;42713;42.676;23.352;2023-08-06T02:43:49;93638.84;;;19.56;88.89
56831;BME280;42713;42.676;23.352;2023-08-06T02:46:14;93643.78;;;19.45;89.71
56831;BME280;42713;42.676;23.352;2023-08-06T02:48:39;93636.22;;;19.35;89.78
56831;BME280;42713;42.676;23.352;2023-08-06T02:51:05;93621.56;;;19.28;91.85
56831;BME280;42713;42.676;23.352;2023-08-06T02:53:32;93621.13;;;19.26;93.24
56831;BME280;42713;42.676;23.352;2023-08-06T02:55:57;93593.34;;;19.24;92.26
56831;BME280;42713;42.676;23.352;2023-08-06T02:58:24;93605.13;;;19.35;95.50
56831;BME280;42713;42.676;23.352;2023-08-06T03:01:05;93594.09;;;19.46;94.07
56831;BME280;42713;42.676;23.352;2023-08-06T03:03:31;93584.81;;;19.52;95.36
56831;BME280;42713;42.676;23.352;2023-08-06T03:05:57;93584.31;;;19.58;94.38
56831;BME280;42713;42.676;23.352;2023-08-06T03:08:22;93590.66;;;19.66;95.47
56831;BME280;42713;42.676;23.352;2023-08-06T03:10:51;93569.50;;;19.70;94.79
56831;BME280;42713;42.676;23.352;2023-08-06T03:13:17;93549.16;;;19.74;95.64
56831;BME280;42713;42.676;23.352;2023-08-06T03:15:43;93551.25;;;19.81;96.46
56831;BME280;42713;42.676;23.352;2023-08-06T03:18:08;93576.88;;;19.85;95.08
56831;BME280;42713;42.676;23.352;2023-08-06T03:20:34;93567.22;;;19.81;90.96
56831;BME280;42713;42.676;23.352;2023-08-06T03:22:59;93560.56;;;19.74;92.20
56831;BME280;42713;42.676;23.352;2023-08-06T03:25:25;93549.47;;;19.72;92.77
56831;BME280;42713;42.676;23.352;2023-08-06T03:27:50;93565.22;;;19.78;93.67
56831;BME280;42713;42.676;23.352;2023-08-06T03:30:16;93597.88;;;19.78;91.73
56831;BME280;42713;42.676;23.352;2023-08-06T03:32:41;93619.91;;;19.79;91.16
56831;BME280;42713;42.676;23.352;2023-08-06T03:35:07;93618.38;;;19.78;93.15
56831;BME280;42713;42.676;23.352;2023-08-06T03:37:34;93628.78;;;19.83;94.38
56831;BME280;42713;42.676;23.352;2023-08-06T03:39:59;93627.47;;;19.89;94.00
56831;BME280;42713;42.676;23.352;2023-08-06T03:42:25;93618.09;;;19.92;94.37
56831;BME280;42713;42.676;23.352;2023-08-06T03:44:50;93600.72;;;19.94;95.02
56831;BME280;42713;42.676;23.352;2023-08-06T03:47:16;93598.50;;;19.96;95.20
56831;BME280;42713;42.676;23.352;2023-08-06T03:49:41;93605.22;;;19.94;92.96
56831;BME280;42713;42.676;23.352;2023-08-06T03:52:07;93600.19;;;19.80;91.27
56831;BME280;42713;42.676;23.352;2023-08-06T03:54:32;93613.00;;;19.65;91.23
56831;BME280;42713;42.676;23.352;2023-08-06T03:56:58;93630.50;;;19.66;93.26
56831;BME280;42713;42.676;23.352;2023-08-06T03:59:23;93629.50;;;19.71;94.41
56831;BME280;42713;42.676;23.352;2023-08-06T04:01:48;93627.75;;;19.75;94.35
56831;BME280;42713;42.676;23.352;2023-08-06T04:04:14;93633.63;;;19.81;94.54
56831;BME280;42713;42.676;23.352;2023-08-06T04:06:40;93642.66;;;19.88;95.82
56831;BME280;42713;42.676;23.352;2023-08-06T04:09:05;93647.75;;;19.94;96.11
56831;BME280;42713;42.676;23.352;2023-08-06T04:11:31;93653.53;;;19.96;94.54
56831;BME280;42713;42.676;23.352;2023-08-06T04:13:56;93658.31;;;20.02;94.25
56831;BME280;42713;42.676;23.352;2023-08-06T04:16:21;93646.25;;;20.05;93.87
56831;BME280;42713;42.676;23.352;2023-08-06T04:18:47;93627.44;;;20.10;94.76
56831;BME280;42713;42.676;23.352;2023-08-06T04:21:12;93623.34;;;20.13;94.01
56831;BME280;42713;42.676;23.352;2023-08-06T04:23:38;93619.25;;;20.15;93.97
56831;BME280;42713;42.676;23.352;2023-08-06T04:26:03;93613.63;;;20.17;93.36
56831;BME280;42713;42.676;23.352;2023-08-06T04:28:29;93612.38;;;20.14;91.09
56831;BME280;42713;42.676;23.352;2023-08-06T04:30:55;93615.25;;;20.09;91.83
56831;BME280;42713;42.676;23.352;2023-08-06T04:33:21;93622.78;;;20.07;91.18
56831;BME280;42713;42.676;23.352;2023-08-06T04:35:46;93615.78;;;20.02;91.02
56831;BME280;42713;42.676;23.352;2023-08-06T04:38:12;93597.84;;;19.99;90.74
56831;BME280;42713;42.676;23.352;2023-08-06T04:40:38;93598.06;;;19.94;91.14
56831;BME280;42713;42.676;23.352;2023-08-06T04:43:03;93584.31;;;19.92;90.58
56831;BME280;42713;42.676;23.352;2023-08-06T04:52:23;93559.94;;;19.44;94.65
56831;BME280;42713;42.676;23.352;2023-08-06T04:54:52;93558.56;;;19.38;93.88
56831;BME280;42713;42.676;23.352;2023-08-06T04:57:18;93546.19;;;19.42;94.57
56831;BME280;42713;42.676;23.352;2023-08-06T04:59:43;93549.31;;;19.44;93.62
56831;BME280;42713;42.676;23.352;2023-08-06T05:02:09;93543.31;;;19.47;94.43
56831;BME280;42713;42.676;23.352;2023-08-06T05:04:34;93546.25;;;19.54;94.67
56831;BME280;42713;42.676;23.352;2023-08-06T05:07:00;93552.09;;;19.60;93.10
56831;BME280;42713;42.676;23.352;2023-08-06T05:09:25;93554.44;;;19.62;93.63
56831;BME280;42713;42.676;23.352;2023-08-06T05:11:51;93559.63;;;19.58;93.31
56831;BME280;42713;42.676;23.352;2023-08-06T05:14:17;93557.97;;;19.53;92.68
56831;BME280;42713;42.676;23.352;2023-08-06T05:16:42;93570.16;;;19.54;93.69
56831;BME280;42713;42.676;23.352;2023-08-06T05:19:08;93564.28;;;19.61;93.49
56831;BME280;42713;42.676;23.352;2023-08-06T05:21:33;93567.44;;;19.75;93.63
56831;BME280;42713;42.676;23.352;2023-08-06T05:23:58;93570.31;;;19.83;93.15
56831;BME280;42713;42.676;23.352;2023-08-06T05:26:24;93574.13;;;19.94;93.28
56831;BME280;42713;42.676;23.352;2023-08-06T05:28:49;93564.84;;;19.88;91.47
56831;BME280;42713;42.676;23.352;2023-08-06T05:31:15;93566.69;;;19.87;91.14
56831;BME280;42713;42.676;23.352;2023-08-06T05:33:40;93565.47;;;19.85;91.48
56831;BME280;42713;42.676;23.352;2023-08-06T05:36:06;93567.22;;;19.81;92.58
56831;BME280;42713;42.676;23.352;2023-08-06T05:38:31;93546.75;;;19.81;93.12
56831;BME280;42713;42.676;23.352;2023-08-06T05:40:57;93560.72;;;19.90;93.35
56831;BME280;42713;42.676;23.352;2023-08-06T05:43:22;93546.53;;;19.86;92.57
56831;BME280;42713;42.676;23.352;2023-08-06T05:45:51;93540.41;;;19.73;91.00
56831;BME280;42713;42.676;23.352;2023-08-06T05:48:17;93532.78;;;19.72;93.54
56831;BME280;42713;42.676;23.352;2023-08-06T05:50:42;93542.50;;;19.68;90.82
56831;BME280;42713;42.676;23.352;2023-08-06T05:53:08;93553.03;;;19.77;92.79
56831;BME280;42713;42.676;23.352;2023-08-06T05:55:34;93550.94;;;19.82;90.29
56831;BME280;42713;42.676;23.352;2023-08-06T05:57:59;93549.50;;;19.85;90.58
56831;BME280;42713;42.676;23.352;2023-08-06T06:00:25;93547.66;;;19.85;88.44
56831;BME280;42713;42.676;23.352;2023-08-06T06:02:51;93565.06;;;19.95;88.06
56831;BME280;42713;42.676;23.352;2023-08-06T06:05:16;93571.25;;;19.99;85.82
56831;BME280;42713;42.676;23.352;2023-08-06T06:07:42;93558.97;;;19.95;85.73
56831;BME280;42713;42.676;23.352;2023-08-06T06:10:09;93574.25;;;19.98;86.27
56831;BME280;42713;42.676;23.352;2023-08-06T06:12:34;93577.84;;;19.81;84.69
56831;BME280;42713;42.676;23.352;2023-08-06T06:15:00;93570.97;;;19.80;84.38
56831;BME280;42713;42.676;23.352;2023-08-06T06:17:29;93581.09;;;19.86;85.15
56831;BME280;42713;42.676;23.352;2023-08-06T06:19:54;93593.28;;;19.87;84.23
56831;BME280;42713;42.676;23.352;2023-08-06T06:22:19;93592.41;;;19.96;86.01
56831;BME280;42713;42.676;23.352;2023-08-06T06:24:45;93597.41;;;20.10;86.12
56831;BME280;42713;42.676;23.352;2023-08-06T06:27:13;93596.53;;;20.05;83.39
56831;BME280;42713;42.676;23.352;2023-08-06T06:29:39;93595.97;;;20.00;80.99
56831;BME280;42713;42.676;23.352;2023-08-06T06:32:04;93595.41;;;19.94;78.38
56831;BME280;42713;42.676;23.352;2023-08-06T06:34:30;93614.13;;;19.98;79.51
56831;BME280;42713;42.676;23.352;2023-08-06T06:36:55;93627.06;;;19.99;82.38
56831;BME280;42713;42.676;23.352;2023-08-06T06:39:21;93624.41;;;19.99;83.64
56831;BME280;42713;42.676;23.352;2023-08-06T06:41:46;93612.66;;;20.00;82.72
56831;BME280;42713;42.676;23.352;2023-08-06T06:44:13;93626.75;;;20.01;80.70
56831;BME280;42713;42.676;23.352;2023-08-06T06:46:38;93627.75;;;20.09;81.39
56831;BME280;42713;42.676;23.352;2023-08-06T06:49:05;93623.44;;;20.16;80.72
56831;BME280;42713;42.676;23.352;2023-08-06T06:51:30;93634.88;;;20.17;79.05
56831;BME280;42713;42.676;23.352;2023-08-06T06:53:57;93667.88;;;20.16;79.16
56831;BME280;42713;42.676;23.352;2023-08-06T06:56:23;93640.41;;;20.24;78.58
56831;BME280;42713;42.676;23.352;2023-08-06T06:58:48;93655.56;;;20.11;79.67
56831;BME280;42713;42.676;23.352;2023-08-06T07:01:14;93650.03;;;20.16;79.64
56831;BME280;42713;42.676;23.352;2023-08-06T07:03:39;93675.63;;;20.21;79.76
56831;BME280;42713;42.676;23.352;2023-08-06T07:06:05;93659.81;;;20.37;79.72
56831;BME280;42713;42.676;23.352;2023-08-06T07:08:31;93657.63;;;20.39;79.00
56831;BME280;42713;42.676;23.352;2023-08-06T07:11:04;93654.63;;;20.41;77.71
56831;BME280;42713;42.676;23.352;2023-08-06T07:13:31;93680.34;;;20.49;76.25
56831;BME280;42713;42.676;23.352;2023-08-06T07:16:00;93668.84;;;20.57;77.49
56831;BME280;42713;42.676;23.352;2023-08-06T07:18:26;93689.97;;;20.53;75.50
56831;BME280;42713;42.676;23.352;2023-08-06T07:20:52;93696.09;;;20.54;75.35
56831;BME280;42713;42.676;23.352;2023-08-06T07:23:22;93671.59;;;20.48;75.11
56831;BME280;42713;42.676;23.352;2023-08-06T07:25:48;93676.47;;;20.46;74.49
56831;BME280;42713;42.676;23.352;2023-08-06T07:28:14;93674.47;;;20.43;71.69
56831;BME280;42713;42.676;23.352;2023-08-06T07:30:41;93682.13;;;20.45;70.03
56831;BME280;42713;42.676;23.352;2023-08-06T07:33:07;93681.59;;;20.51;69.84
56831;BME280;42713;42.676;23.352;2023-08-06T07:35:35;93680.69;;;20.47;68.91
56831;BME280;42713;42.676;23.352;2023-08-06T07:38:00;93674.38;;;20.52;70.18
56831;BME280;42713;42.676;23.352;2023-08-06T07:40:26;93671.03;;;20.67;70.67
56831;BME280;42713;42.676;23.352;2023-08-06T07:42:51;93685.94;;;20.81;68.81
56831;BME280;42713;42.676;23.352;2023-08-06T07:45:17;93672.84;;;20.88;70.18
56831;BME280;42713;42.676;23.352;2023-08-06T07:47:43;93687.38;;;21.03;68.61
56831;BME280;42713;42.676;23.352;2023-08-06T07:50:09;93672.84;;;21.13;66.81
56831;BME280;42713;42.676;23.352;2023-08-06T07:52:35;93682.94;;;21.20;65.61
56831;BME280;42713;42.676;23.352;2023-08-06T07:55:00;93683.72;;;21.20;65.38
56831;BME280;42713;42.676;23.352;2023-08-06T07:57:30;93689.03;;;21.20;64.95
56831;BME280;42713;42.676;23.352;2023-08-06T07:59:56;93682.03;;;21.28;64.88
56831;BME280;42713;42.676;23.352;2023-08-06T08:02:22;93671.25;;;21.37;64.81
56831;BME280;42713;42.676;23.352;2023-08-06T08:04:48;93667.91;;;21.52;64.72
56831;BME280;42713;42.676;23.352;2023-08-06T08:07:13;93654.78;;;21.59;64.88
56831;BME280;42713;42.676;23.352;2023-08-06T08:09:39;93648.41;;;21.76;64.30
56831;BME280;42713;42.676;23.352;2023-08-06T08:12:05;93653.75;;;21.76;66.08
56831;BME280;42713;42.676;23.352;2023-08-06T08:14:31;93654.81;;;21.88;66.24
56831;BME280;42713;42.676;23.352;2023-08-06T08:17:01;93662.00;;;21.87;65.14
56831;BME280;42713;42.676;23.352;2023-08-06T08:19:28;93675.44;;;21.91;65.62
56831;BME280;42713;42.676;23.352;2023-08-06T08:21:53;93668.56;;;21.90;64.47
56831;BME280;42713;42.676;23.352;2023-08-06T08:24:20;93668.56;;;21.90;64.32
56831;BME280;42713;42.676;23.352;2023-08-06T08:26:49;93682.72;;;21.78;63.32
56831;BME280;42713;42.676;23.352;2023-08-06T08:29:15;93661.94;;;21.84;62.61
56831;BME280;42713;42.676;23.352;2023-08-06T08:31:40;93682.53;;;21.99;63.58
56831;BME280;42713;42.676;23.352;2023-08-06T08:34:05;93657.41;;;22.00;64.13
56831;BME280;42713;42.676;23.352;2023-08-06T08:36:31;93667.75;;;22.02;62.35
56831;BME280;42713;42.676;23.352;2023-08-06T08:38:57;93663.34;;;22.10;62.09
56831;BME280;42713;42.676;23.352;2023-08-06T08:41:22;93667.34;;;22.16;61.43
56831;BME280;42713;42.676;23.352;2023-08-06T08:43:50;93678.19;;;22.23;60.36
56831;BME280;42713;42.676;23.352;2023-08-06T08:46:18;93662.72;;;22.29;60.81
56831;BME280;42713;42.676;23.352;2023-08-06T08:48:44;93669.34;;;22.35;61.43
56831;BME280;42713;42.676;23.352;2023-08-06T08:51:11;93659.53;;;22.39;61.40
56831;BME280;42713;42.676;23.352;2023-08-06T08:53:43;93664.91;;;22.55;61.84
56831;BME280;42713;42.676;23.352;2023-08-06T08:56:10;93658.88;;;22.58;59.97
56831;BME280;42713;42.676;23.352;2023-08-06T08:58:36;93658.19;;;22.61;60.69
56831;BME280;42713;42.676;23.352;2023-08-06T09:01:02;93644.53;;;22.63;59.26
56831;BME280;42713;42.676;23.352;2023-08-06T09:03:29;93642.44;;;22.56;59.99
56831;BME280;42713;42.676;23.352;2023-08-06T09:05:56;93637.50;;;22.74;60.04
56831;BME280;42713;42.676;23.352;2023-08-06T09:08:27;93635.88;;;22.69;59.63
56831;BME280;42713;42.676;23.352;2023-08-06T09:10:56;93626.00;;;22.70;59.93
56831;BME280;42713;42.676;23.352;2023-08-06T09:13:22;93638.31;;;22.75;60.24
56831;BME280;42713;42.676;23.352;2023-08-06T09:15:48;93630.38;;;22.62;60.33
56831;BME280;42713;42.676;23.352;2023-08-06T09:18:25;93636.16;;;22.64;61.13
56831;BME280;42713;42.676;23.352;2023-08-06T09:20:52;93622.81;;;22.64;61.06
56831;BME280;42713;42.676;23.352;2023-08-06T09:23:17;93626.16;;;22.77;61.38
56831;BME280;42713;42.676;23.352;2023-08-06T09:25:42;93620.72;;;22.90;59.22
56831;BME280;42713;42.676;23.352;2023-08-06T09:28:08;93619.69;;;22.94;58.81
56831;BME280;42713;42.676;23.352;2023-08-06T09:30:36;93620.00;;;22.93;58.99
56831;BME280;42713;42.676;23.352;2023-08-06T09:33:03;93599.00;;;22.91;57.88
56831;BME280;42713;42.676;23.352;2023-08-06T09:35:31;93618.69;;;23.03;59.22
56831;BME280;42713;42.676;23.352;2023-08-06T09:38:09;93607.41;;;23.09;57.74
56831;BME280;42713;42.676;23.352;2023-08-06T09:40:36;93597.31;;;23.19;56.60
56831;BME280;42713;42.676;23.352;2023-08-06T09:43:02;93594.78;;;23.26;56.92
56831;BME280;42713;42.676;23.352;2023-08-06T09:45:37;93624.88;;;23.42;55.99
56831;BME280;42713;42.676;23.352;2023-08-06T09:48:05;93607.16;;;23.34;53.56
56831;BME280;42713;42.676;23.352;2023-08-06T09:50:33;93605.69;;;23.37;53.24
56831;BME280;42713;42.676;23.352;2023-08-06T09:52:59;93608.03;;;23.38;53.46
56831;BME280;42713;42.676;23.352;2023-08-06T09:55:26;93605.84;;;23.44;54.46
56831;BME280;42713;42.676;23.352;2023-08-06T09:57:52;93606.19;;;23.42;53.93
56831;BME280;42713;42.676;23.352;2023-08-06T10:00:18;93600.63;;;23.51;53.37
56831;BME280;42713;42.676;23.352;2023-08-06T10:02:45;93621.88;;;23.63;51.46
56831;BME280;42713;42.676;23.352;2023-08-06T10:05:10;93622.16;;;23.58;50.01
56831;BME280;42713;42.676;23.352;2023-08-06T10:07:37;93608.16;;;23.45;51.01
56831;BME280;42713;42.676;23.352;2023-08-06T10:10:06;93622.03;;;23.51;50.65
56831;BME280;42713;42.676;23.352;2023-08-06T10:12:34;93617.16;;;23.57;50.16
56831;BME280;42713;42.676;23.352;2023-08-06T10:15:04;93619.34;;;23.51;51.53
56831;BME280;42713;42.676;23.352;2023-08-06T10:17:32;93621.41;;;23.58;50.53
56831;BME280;42713;42.676;23.352;2023-08-06T10:19:59;93627.94;;;23.60;50.84
56831;BME280;42713;42.676;23.352;2023-08-06T10:22:25;93627.88;;;23.57;50.58
56831;BME280;42713;42.676;23.352;2023-08-06T10:24:56;93613.50;;;23.65;50.63
56831;BME280;42713;42.676;23.352;2023-08-06T10:27:29;93602.66;;;23.77;50.77
56831;BME280;42713;42.676;23.352;2023-08-06T10:29:55;93602.25;;;23.95;50.69
56831;BME280;42713;42.676;23.352;2023-08-06T10:32:20;93607.66;;;23.99;50.12
56831;BME280;42713;42.676;23.352;2023-08-06T10:34:59;93613.00;;;23.99;51.07
56831;BME280;42713;42.676;23.352;2023-08-06T10:37:36;93619.06;;;23.96;51.39
56831;BME280;42713;42.676;23.352;2023-08-06T10:40:03;93625.75;;;23.86;52.54
56831;BME280;42713;42.676;23.352;2023-08-06T10:42:29;93645.66;;;23.69;53.02
56831;BME280;42713;42.676;23.352;2023-08-06T10:45:16;93643.41;;;23.71;53.13
56831;BME280;42713;42.676;23.352;2023-08-06T10:47:42;93654.16;;;23.74;52.07
56831;BME280;42713;42.676;23.352;2023-08-06T10:50:14;93649.25;;;23.76;52.82
56831;BME280;42713;42.676;23.352;2023-08-06T10:52:46;93657.13;;;23.69;52.27
56831;BME280;42713;42.676;23.352;2023-08-06T10:55:33;93646.06;;;23.71;53.03
56831;BME280;42713;42.676;23.352;2023-08-06T10:57:58;93644.81;;;23.65;51.90
56831;BME280;42713;42.676;23.352;2023-08-06T11:00:24;93673.50;;;23.68;52.45
56831;BME280;42713;42.676;23.352;2023-08-06T11:02:51;93665.09;;;23.66;52.18
56831;BME280;42713;42.676;23.352;2023-08-06T11:05:18;93658.25;;;23.68;51.92
56831;BME280;42713;42.676;23.352;2023-08-06T11:07:43;93653.19;;;23.63;52.47
56831;BME280;42713;42.676;23.352;2023-08-06T11:10:11;93676.19;;;23.68;52.61
56831;BME280;42713;42.676;23.352;2023-08-06T11:12:37;93658.31;;;23.72;53.11
56831;BME280;42713;42.676;23.352;2023-08-06T11:15:03;93667.34;;;23.83;52.40
56831;BME280;42713;42.676;23.352;2023-08-06T11:17:31;93660.94;;;23.88;52.44
56831;BME280;42713;42.676;23.352;2023-08-06T11:20:02;93654.72;;;24.03;52.08
56831;BME280;42713;42.676;23.352;2023-08-06T11:22:29;93672.69;;;24.03;51.75
56831;BME280;42713;42.676;23.352;2023-08-06T11:24:55;93692.88;;;23.81;54.33
56831;BME280;42713;42.676;23.352;2023-08-06T11:27:20;93708.53;;;23.62;56.76
56831;BME280;42713;42.676;23.352;2023-08-06T11:29:46;93719.59;;;23.25;56.07
56831;BME280;42713;42.676;23.352;2023-08-06T11:32:11;93709.94;;;22.89;59.17
56831;BME280;42713;42.676;23.352;2023-08-06T11:34:38;93693.47;;;22.70;63.23
56831;BME280;42713;42.676;23.352;2023-08-06T11:37:04;93682.22;;;22.61;62.66
56831;BME280;42713;42.676;23.352;2023-08-06T11:39:37;93685.56;;;22.58;64.76
56831;BME280;42713;42.676;23.352;2023-08-06T11:42:04;93686.69;;;22.57;65.45
56831;BME280;42713;42.676;23.352;2023-08-06T11:44:40;93687.03;;;22.56;66.81
56831;BME280;42713;42.676;23.352;2023-08-06T11:47:12;93673.69;;;22.72;64.84
56831;BME280;42713;42.676;23.352;2023-08-06T11:52:12;93668.63;;;23.18;65.01
56831;BME280;42713;42.676;23.352;2023-08-06T11:54:38;93675.38;;;23.28;64.55
56831;BME280;42713;42.676;23.352;2023-08-06T11:57:05;93676.72;;;23.38;61.78
56831;BME280;42713;42.676;23.352;2023-08-06T11:59:31;93679.34;;;23.54;61.79
56831;BME280;42713;42.676;23.352;2023-08-06T12:01:56;93665.72;;;23.78;61.94
56831;BME280;42713;42.676;23.352;2023-08-06T12:04:22;93662.75;;;24.03;59.85
56831;BME280;42713;42.676;23.352;2023-08-06T12:06:47;93659.72;;;24.24;54.16
56831;BME280;42713;42.676;23.352;2023-08-06T12:09:12;93653.53;;;24.44;55.00
56831;BME280;42713;42.676;23.352;2023-08-06T12:11:38;93665.81;;;24.68;54.26
56831;BME280;42713;42.676;23.352;2023-08-06T12:14:03;93659.19;;;24.85;52.51
56831;BME280;42713;42.676;23.352;2023-08-06T12:16:29;93656.78;;;25.03;53.50
56831;BME280;42713;42.676;23.352;2023-08-06T12:18:55;93650.91;;;25.21;49.92
56831;BME280;42713;42.676;23.352;2023-08-06T12:21:20;93640.47;;;25.42;51.19
56831;BME280;42713;42.676;23.352;2023-08-06T12:23:46;93642.19;;;25.54;47.47
56831;BME280;42713;42.676;23.352;2023-08-06T12:26:11;93645.84;;;25.42;47.03
56831;BME280;42713;42.676;23.352;2023-08-06T12:28:36;93644.66;;;25.40;46.22
56831;BME280;42713;42.676;23.352;2023-08-06T12:31:02;93647.22;;;25.32;46.28
56831;BME280;42713;42.676;23.352;2023-08-06T12:33:27;93644.88;;;25.27;47.34
56831;BME280;42713;42.676;23.352;2023-08-06T12:35:53;93649.97;;;25.09;46.66
56831;BME280;42713;42.676;23.352;2023-08-06T12:38:20;93653.28;;;24.99;47.41
56831;BME280;42713;42.676;23.352;2023-08-06T12:40:45;93650.88;;;24.94;47.58
56831;BME280;42713;42.676;23.352;2023-08-06T12:43:11;93644.41;;;24.95;47.05
56831;BME280;42713;42.676;23.352;2023-08-06T12:45:36;93649.00;;;24.94;48.17
56831;BME280;42713;42.676;23.352;2023-08-06T12:48:02;93636.03;;;24.96;47.95
56831;BME280;42713;42.676;23.352;2023-08-06T12:50:28;93636.38;;;24.95;48.54
56831;BME280;42713;42.676;23.352;2023-08-06T12:52:55;93636.13;;;25.04;47.82
56831;BME280;42713;42.676;23.352;2023-08-06T12:55:20;93635.03;;;25.08;48.12
56831;BME280;42713;42.676;23.352;2023-08-06T12:57:48;93631.69;;;25.15;48.01
56831;BME280;42713;42.676;23.352;2023-08-06T13:00:13;93640.19;;;25.21;46.67
56831;BME280;42713;42.676;23.352;2023-08-06T13:02:39;93639.44;;;25.24;47.20